createdAt,value
2023-03-11T00:00:33.708Z,100569.09
2023-03-11T00:03:01.898Z,100570.50
2023-03-11T00:05:31.177Z,100591.69
2023-03-11T00:07:58.554Z,100611.97
2023-03-11T00:10:34.784Z,100625.53
2023-03-11T00:13:02.123Z,100628.72
2023-03-11T00:15:29.126Z,100620.75
2023-03-11T00:17:55.939Z,100628.50
2023-03-11T00:20:31.439Z,100646.00
2023-03-11T00:22:58.500Z,100650.78
2023-03-11T00:25:27.287Z,100656.31
2023-03-11T00:27:53.993Z,100641.63
2023-03-11T00:30:21.616Z,100659.91
2023-03-11T00:32:51.228Z,100653.69
2023-03-11T00:35:21.709Z,100662.03
2023-03-11T00:37:48.614Z,100668.88
2023-03-11T00:40:18.290Z,100674.44
2023-03-11T00:42:45.252Z,100660.28
2023-03-11T00:45:12.899Z,100679.38
2023-03-11T00:47:39.377Z,100673.97
2023-03-11T00:50:07.207Z,100685.06
2023-03-11T00:52:33.727Z,100667.97
2023-03-11T00:55:00.147Z,100688.16
2023-03-11T00:57:29.093Z,100676.25
2023-03-11T00:59:56.031Z,100693.44
2023-03-11T01:02:22.863Z,100674.94
2023-03-11T01:04:54.174Z,100681.72
2023-03-11T01:07:20.524Z,100701.09
2023-03-11T01:09:46.884Z,100698.56
2023-03-11T01:12:13.321Z,100684.22
2023-03-11T01:14:40.021Z,100700.34
2023-03-11T01:17:06.420Z,100698.31
2023-03-11T01:19:32.805Z,100697.56
2023-03-11T01:21:59.215Z,100706.44
2023-03-11T01:24:25.582Z,100704.38
2023-03-11T01:26:51.956Z,100717.00
2023-03-11T01:29:18.329Z,100715.97
2023-03-11T01:31:44.704Z,100700.31
2023-03-11T01:34:12.583Z,100717.81
2023-03-11T01:36:38.975Z,100716.78
2023-03-11T01:39:05.478Z,100726.28
2023-03-11T01:41:31.939Z,100731.78
2023-03-11T01:43:58.353Z,100741.34
2023-03-11T01:46:36.514Z,100755.06
2023-03-11T01:49:04.833Z,100737.41
2023-03-11T01:51:40.298Z,100757.25
2023-03-11T01:54:11.720Z,100747.69
2023-03-11T01:56:39.677Z,100766.03
2023-03-11T01:59:08.488Z,100765.03
2023-03-11T02:01:41.791Z,100761.19
2023-03-11T02:04:08.560Z,100769.06
2023-03-11T02:06:35.493Z,100740.38
2023-03-11T02:09:01.996Z,100773.84
2023-03-11T02:11:30.729Z,100779.56
2023-03-11T02:14:03.290Z,100776.41
2023-03-11T02:16:29.793Z,100771.34
2023-03-11T02:19:00.492Z,100758.56
2023-03-11T02:21:30.004Z,100762.06
2023-03-11T02:24:15.925Z,100774.75
2023-03-11T02:27:02.753Z,100771.81
2023-03-11T02:29:30.228Z,100771.72
2023-03-11T02:31:58.491Z,100751.28
2023-03-11T02:34:27.503Z,100785.66
2023-03-11T02:36:54.013Z,100777.22
2023-03-11T02:39:38.661Z,100789.66
2023-03-11T02:42:13.857Z,100778.38
2023-03-11T02:44:42.596Z,100767.28
2023-03-11T02:47:09.247Z,100774.06
2023-03-11T02:49:36.611Z,100787.66
2023-03-11T02:52:03.565Z,100796.41
2023-03-11T02:54:30.135Z,100804.47
2023-03-11T02:56:56.565Z,100807.41
2023-03-11T02:59:23.041Z,100798.31
2023-03-11T03:01:49.410Z,100807.19
2023-03-11T03:04:15.882Z,100805.50
2023-03-11T03:06:42.268Z,100809.28
2023-03-11T03:09:08.661Z,100809.88
2023-03-11T03:11:35.040Z,100822.94
2023-03-11T03:14:01.400Z,100809.78
2023-03-11T03:16:27.824Z,100806.97
2023-03-11T03:18:54.324Z,100825.22
2023-03-11T03:21:20.731Z,100824.59
2023-03-11T03:23:47.171Z,100830.50
2023-03-11T03:26:14.442Z,100815.34
2023-03-11T03:28:40.810Z,100828.31
2023-03-11T03:31:09.128Z,100836.81
2023-03-11T03:33:35.924Z,100835.28
2023-03-11T03:36:07.349Z,100838.22
2023-03-11T03:38:33.749Z,100847.09
2023-03-11T03:41:00.134Z,100850.84
2023-03-11T03:43:26.511Z,100830.66
2023-03-11T03:46:00.969Z,100856.94
2023-03-11T03:48:27.965Z,100843.31
2023-03-11T03:50:54.392Z,100868.03
2023-03-11T03:53:20.868Z,100870.47
2023-03-11T03:55:47.469Z,100864.53
2023-03-11T03:58:13.933Z,100876.84
2023-03-11T04:00:40.337Z,100885.31
2023-03-11T04:03:07.029Z,100874.94
2023-03-11T04:05:33.575Z,100882.81
2023-03-11T04:08:00.645Z,100887.72
2023-03-11T04:10:27.150Z,100876.00
2023-03-11T04:12:53.513Z,100883.91
2023-03-11T04:15:19.892Z,100881.75
2023-03-11T04:17:46.260Z,100872.31
2023-03-11T04:20:12.748Z,100890.97
2023-03-11T04:22:39.138Z,100878.16
2023-03-11T04:25:05.946Z,100878.38
2023-03-11T04:27:32.315Z,100911.75
2023-03-11T04:29:58.705Z,100908.28
2023-03-11T04:32:25.077Z,100895.13
2023-03-11T04:34:51.578Z,100909.91
2023-03-11T04:37:17.963Z,100924.81
2023-03-11T04:39:44.309Z,100928.59
2023-03-11T04:42:10.736Z,100933.97
2023-03-11T04:44:37.230Z,100923.94
2023-03-11T04:47:03.671Z,100935.75
2023-03-11T04:49:30.036Z,100940.38
2023-03-11T04:51:56.450Z,100930.88
2023-03-11T04:54:22.830Z,100945.47
2023-03-11T04:56:49.216Z,100941.75
2023-03-11T04:59:15.605Z,100935.63
2023-03-11T05:01:42.025Z,100949.13
2023-03-11T05:04:08.552Z,100953.44
2023-03-11T05:06:35.030Z,100957.34
2023-03-11T05:09:01.433Z,100951.59
2023-03-11T05:11:27.801Z,100954.31
2023-03-11T05:13:54.244Z,100963.47
2023-03-11T05:16:20.615Z,100959.72
2023-03-11T05:18:47.031Z,100961.91
2023-03-11T05:21:13.780Z,100961.94
2023-03-11T05:23:40.156Z,100967.34
2023-03-11T05:26:06.559Z,100969.88
2023-03-11T05:28:32.965Z,100967.88
2023-03-11T05:30:59.421Z,100956.47
2023-03-11T05:33:25.880Z,100971.31
2023-03-11T05:35:52.305Z,100971.91
2023-03-11T05:38:18.756Z,100957.31
2023-03-11T05:40:45.141Z,100975.19
2023-03-11T05:43:11.719Z,100960.66
2023-03-11T05:45:38.080Z,100990.00
2023-03-11T05:48:04.535Z,100984.63
2023-03-11T05:50:30.999Z,100981.66
2023-03-11T05:52:57.434Z,100996.41
2023-03-11T05:55:23.831Z,100988.22
2023-03-11T05:57:54.605Z,100999.47
2023-03-11T06:00:21.508Z,100995.06
2023-03-11T06:02:48.103Z,101007.34
2023-03-11T06:05:14.931Z,101009.25
2023-03-11T06:07:41.398Z,101011.03
2023-03-11T06:10:08.369Z,101001.69
2023-03-11T06:12:35.292Z,101015.09
2023-03-11T06:15:01.814Z,101005.13
2023-03-11T06:17:30.266Z,101005.78
2023-03-11T06:19:56.974Z,101011.78
2023-03-11T06:22:23.358Z,101023.44
2023-03-11T06:24:49.782Z,101032.31
2023-03-11T06:27:16.221Z,101037.81
2023-03-11T06:29:42.601Z,101039.53
2023-03-11T06:32:08.966Z,101054.22
2023-03-11T06:34:35.487Z,101037.88
2023-03-11T06:37:01.877Z,101054.22
2023-03-11T06:39:28.331Z,101053.38
2023-03-11T06:41:54.741Z,101046.94
2023-03-11T06:44:21.159Z,101050.31
2023-03-11T06:46:47.518Z,101063.31
2023-03-11T06:49:13.904Z,101033.03
2023-03-11T06:51:40.341Z,101067.81
2023-03-11T06:54:07.110Z,101070.38
2023-03-11T06:56:33.530Z,101063.09
2023-03-11T06:58:59.881Z,101080.13
2023-03-11T07:01:28.097Z,101090.56
2023-03-11T07:03:54.617Z,101082.84
2023-03-11T07:06:26.441Z,101092.16
2023-03-11T07:08:53.693Z,101095.47
2023-03-11T07:11:22.650Z,101104.03
2023-03-11T07:13:49.107Z,101085.22
2023-03-11T07:16:22.073Z,101112.34
2023-03-11T07:18:49.869Z,101113.00
2023-03-11T07:21:18.942Z,101121.13
2023-03-11T07:23:45.785Z,101123.56
2023-03-11T07:26:14.670Z,101105.69
2023-03-11T07:28:41.817Z,101123.16
2023-03-11T07:31:15.087Z,101127.94
2023-03-11T07:33:41.852Z,101121.88
2023-03-11T07:36:20.569Z,101122.06
2023-03-11T07:38:47.738Z,101107.44
2023-03-11T07:41:15.289Z,101100.69
2023-03-11T07:43:42.822Z,101092.53
2023-03-11T07:46:18.724Z,101089.69
2023-03-11T07:48:45.865Z,101074.91
2023-03-11T07:51:14.113Z,101071.88
2023-03-11T07:53:41.002Z,101079.88
2023-03-11T07:56:09.250Z,101056.06
2023-03-11T07:58:35.983Z,101069.13
2023-03-11T08:01:16.327Z,101079.94
2023-03-11T08:03:45.069Z,101077.63
2023-03-11T08:06:16.857Z,101072.06
2023-03-11T08:08:43.512Z,101077.59
2023-03-11T08:11:10.802Z,101080.84
2023-03-11T08:13:37.173Z,101068.75
2023-03-11T08:16:05.087Z,101083.72
2023-03-11T08:18:32.103Z,101077.00
2023-03-11T08:20:58.956Z,101067.00
2023-03-11T08:23:25.380Z,101084.84
2023-03-11T08:25:51.757Z,101101.69
2023-03-11T08:28:18.161Z,101081.03
2023-03-11T08:30:44.550Z,101079.88
2023-03-11T08:33:10.940Z,101087.66
2023-03-11T08:35:37.803Z,101075.78
2023-03-11T08:38:04.445Z,101083.09
2023-03-11T08:40:30.847Z,101091.69
2023-03-11T08:42:57.677Z,101083.34
2023-03-11T08:45:24.136Z,101085.38
2023-03-11T08:47:50.734Z,101071.81
2023-03-11T08:50:19.873Z,101089.59
2023-03-11T08:52:46.518Z,101098.94
2023-03-11T08:55:16.564Z,101111.13
2023-03-11T08:57:43.098Z,101110.34
2023-03-11T09:00:13.089Z,101103.03
2023-03-11T09:02:41.429Z,101113.59
2023-03-11T09:05:08.149Z,101111.16
2023-03-11T09:07:34.522Z,101121.66
2023-03-11T09:10:00.892Z,101121.31
2023-03-11T09:12:28.036Z,101111.31
2023-03-11T09:14:56.126Z,101116.25
2023-03-11T09:17:22.706Z,101114.28
2023-03-11T09:19:49.114Z,101111.63
2023-03-11T09:22:15.992Z,101109.66
2023-03-11T09:24:42.378Z,101119.13
2023-03-11T09:27:10.698Z,101125.97
2023-03-11T09:29:37.109Z,101132.16
2023-03-11T09:32:03.636Z,101137.13
2023-03-11T09:34:30.058Z,101142.34
2023-03-11T09:36:56.419Z,101135.63
2023-03-11T09:39:23.015Z,101131.88
2023-03-11T09:41:58.280Z,101135.88
2023-03-11T09:44:38.670Z,101137.56
2023-03-11T09:47:26.223Z,101124.50
2023-03-11T09:50:18.906Z,101130.13
2023-03-11T09:53:08.577Z,101125.22
2023-03-11T09:55:53.094Z,101137.16
2023-03-11T09:58:35.862Z,101120.50
2023-03-11T10:01:10.345Z,101140.66
2023-03-11T10:03:39.385Z,101131.00
2023-03-11T10:06:28.557Z,101148.16
2023-03-11T10:09:14.897Z,101143.94
2023-03-11T10:12:17.790Z,101154.03
2023-03-11T10:15:02.458Z,101140.41
2023-03-11T10:17:50.300Z,101125.78
2023-03-11T10:20:59.563Z,101151.84
2023-03-11T10:23:46.874Z,101149.22
2023-03-11T10:27:02.536Z,101156.69
2023-03-11T10:29:58.260Z,101169.88
2023-03-11T10:32:50.618Z,101168.66
2023-03-11T10:35:21.847Z,101159.31
2023-03-11T10:38:03.348Z,101157.34
2023-03-11T10:40:35.818Z,101168.19
2023-03-11T10:43:05.937Z,101169.44
2023-03-11T10:45:38.348Z,101151.03
2023-03-11T10:48:10.492Z,101147.66
2023-03-11T10:50:37.928Z,101151.22
2023-03-11T10:53:10.299Z,101134.47
2023-03-11T10:55:46.406Z,101159.34
2023-03-11T10:58:15.591Z,101140.13
2023-03-11T11:00:42.011Z,101178.53
2023-03-11T11:03:23.674Z,101149.50
2023-03-11T11:06:01.887Z,101148.09
2023-03-11T11:08:28.760Z,101156.56
2023-03-11T11:10:57.825Z,101154.59
2023-03-11T11:13:34.551Z,101159.16
2023-03-11T11:16:16.120Z,101159.97
2023-03-11T11:18:49.214Z,101184.19
2023-03-11T11:21:37.304Z,101180.59
2023-03-11T11:24:17.650Z,101172.69
2023-03-11T11:27:03.748Z,101186.97
2023-03-11T11:29:30.253Z,101191.69
2023-03-11T11:32:19.542Z,101174.69
2023-03-11T11:34:55.130Z,101164.97
2023-03-11T11:37:22.854Z,101168.59
2023-03-11T11:39:56.695Z,101177.16
2023-03-11T11:42:25.203Z,101171.50
2023-03-11T11:44:56.819Z,101131.91
2023-03-11T11:47:34.817Z,101157.34
2023-03-11T11:50:05.132Z,101172.53
2023-03-11T11:52:36.393Z,101151.22
2023-03-11T11:55:20.665Z,101167.53
2023-03-11T11:57:47.796Z,101124.41
2023-03-11T12:00:20.987Z,101155.53
2023-03-11T12:03:32.219Z,101160.06
2023-03-11T12:06:01.949Z,101154.28
2023-03-11T12:08:47.302Z,101181.19
2023-03-11T12:11:23.826Z,101162.13
2023-03-11T12:14:07.052Z,101156.88
2023-03-11T12:16:40.389Z,101157.31
2023-03-11T12:19:10.215Z,101160.84
2023-03-11T12:21:45.727Z,101172.16
2023-03-11T12:24:23.033Z,101168.66
2023-03-11T12:26:53.326Z,101147.41
2023-03-11T12:29:32.436Z,101173.19
2023-03-11T12:32:01.526Z,101157.28
2023-03-11T12:34:29.283Z,101163.03
2023-03-11T12:37:00.103Z,101136.56
2023-03-11T12:39:34.348Z,101149.00
2023-03-11T12:42:19.070Z,101165.66
2023-03-11T12:44:46.352Z,101153.75
2023-03-11T12:47:25.201Z,101166.75
2023-03-11T12:49:55.045Z,101189.22
2023-03-11T12:52:22.246Z,101175.94
2023-03-11T12:55:17.677Z,101149.34
2023-03-11T12:57:46.988Z,101156.25
2023-03-11T13:00:51.121Z,101159.53
2023-03-11T13:03:51.210Z,101169.44
2023-03-11T13:06:40.412Z,101176.47
2023-03-11T13:09:14.482Z,101168.28
2023-03-11T13:11:48.427Z,101180.81
2023-03-11T13:14:14.873Z,101161.22
2023-03-11T13:16:43.305Z,101172.22
2023-03-11T13:19:35.113Z,101176.22
2023-03-11T13:22:04.165Z,101132.19
2023-03-11T13:24:30.456Z,101177.31
2023-03-11T13:27:00.458Z,101184.09
2023-03-11T13:29:36.621Z,101181.44
2023-03-11T13:32:24.844Z,101182.41
2023-03-11T13:35:09.997Z,101184.06
2023-03-11T13:37:51.592Z,101182.75
2023-03-11T13:40:38.368Z,101195.97
2023-03-11T13:43:25.014Z,101174.88
2023-03-11T13:45:57.541Z,101143.66
2023-03-11T13:48:41.998Z,101194.19
2023-03-11T13:51:16.297Z,101188.09
2023-03-11T13:53:47.806Z,101207.28
2023-03-11T13:56:21.347Z,101182.06
2023-03-11T13:58:47.728Z,101185.97
2023-03-11T14:01:16.765Z,101184.13
2023-03-11T14:03:44.627Z,101223.56
2023-03-11T14:06:19.433Z,101215.72
2023-03-11T14:08:57.203Z,101205.03
2023-03-11T14:11:29.224Z,101207.13
2023-03-11T14:13:55.687Z,101237.88
2023-03-11T14:16:36.267Z,101229.63
2023-03-11T14:19:08.566Z,101226.84
2023-03-11T14:21:35.388Z,101217.16
2023-03-11T14:24:03.162Z,101212.91
2023-03-11T14:26:32.181Z,101229.56
2023-03-11T14:29:00.994Z,101238.00
2023-03-11T14:31:30.435Z,101243.44
2023-03-11T14:34:07.133Z,101239.53
2023-03-11T14:36:45.355Z,101243.72
2023-03-11T14:39:39.198Z,101237.13
2023-03-11T14:42:08.479Z,101249.22
2023-03-11T14:44:40.296Z,101243.56
2023-03-11T14:47:24.444Z,101255.84
2023-03-11T14:49:52.944Z,101234.59
2023-03-11T14:52:43.959Z,101234.59
2023-03-11T14:55:23.320Z,101230.66
2023-03-11T14:57:55.503Z,101226.59
2023-03-11T15:00:27.672Z,101251.06
2023-03-11T15:03:19.101Z,101228.41
2023-03-11T15:05:52.633Z,101239.66
2023-03-11T15:08:22.550Z,101208.75
2023-03-11T15:11:25.350Z,101240.50
2023-03-11T15:13:53.034Z,101242.78
2023-03-11T15:16:25.571Z,101249.50
2023-03-11T15:18:54.275Z,101233.50
2023-03-11T15:21:23.804Z,101223.09
2023-03-11T15:24:06.594Z,101227.88
2023-03-11T15:26:35.755Z,101212.25
2023-03-11T15:29:15.424Z,101216.31
2023-03-11T15:31:44.853Z,101199.47
2023-03-11T15:34:22.091Z,101220.56
2023-03-11T15:36:48.422Z,101226.59
2023-03-11T15:39:30.100Z,101237.38
2023-03-11T15:42:10.948Z,101218.50
2023-03-11T15:44:42.914Z,101225.47
2023-03-11T15:47:14.609Z,101241.69
2023-03-11T15:49:41.465Z,101244.84
2023-03-11T15:52:08.659Z,101237.69
2023-03-11T15:54:35.096Z,101263.16
2023-03-11T15:57:05.932Z,101266.91
2023-03-11T15:59:33.995Z,101251.53
2023-03-11T16:02:00.503Z,101239.19
2023-03-11T16:04:27.340Z,101252.38
2023-03-11T16:07:06.990Z,101232.88
2023-03-11T16:09:34.230Z,101234.28
2023-03-11T16:12:01.810Z,101252.16
2023-03-11T16:14:28.168Z,101238.56
2023-03-11T16:16:54.537Z,101261.06
2023-03-11T16:19:20.920Z,101258.06
2023-03-11T16:21:50.188Z,101216.66
2023-03-11T16:24:21.007Z,101239.56
2023-03-11T16:26:47.784Z,101275.63
2023-03-11T16:29:19.414Z,101260.59
2023-03-11T16:31:46.795Z,101293.28
2023-03-11T16:34:13.229Z,101289.19
2023-03-11T16:36:39.664Z,101301.47
2023-03-11T16:39:06.203Z,101300.13
2023-03-11T16:41:50.756Z,101310.50
2023-03-11T16:44:17.152Z,101303.28
2023-03-11T16:46:43.594Z,101306.16
2023-03-11T16:49:10.032Z,101303.78
2023-03-11T16:51:36.472Z,101298.59
2023-03-11T16:54:02.843Z,101292.63
2023-03-11T16:56:29.247Z,101308.28
2023-03-11T16:58:56.754Z,101317.03
2023-03-11T17:01:23.389Z,101299.13
2023-03-11T17:03:51.856Z,101311.19
2023-03-11T17:06:20.022Z,101315.91
2023-03-11T17:08:49.388Z,101323.53
2023-03-11T17:11:21.870Z,101326.41
2023-03-11T17:13:50.049Z,101322.41
2023-03-11T17:16:16.622Z,101313.94
2023-03-11T17:18:43.185Z,101319.50
2023-03-11T17:21:12.587Z,101318.88
2023-03-11T17:23:39.192Z,101334.03
2023-03-11T17:26:11.284Z,101338.88
2023-03-11T17:28:39.934Z,101315.78
2023-03-11T17:31:11.151Z,101329.56
2023-03-11T17:33:37.543Z,101318.69
2023-03-11T17:36:06.354Z,101344.50
2023-03-11T17:38:33.054Z,101344.00
2023-03-11T17:40:59.585Z,101323.28
2023-03-11T17:43:26.035Z,101331.28
2023-03-11T17:45:53.680Z,101326.91
2023-03-11T17:48:21.266Z,101350.09
2023-03-11T17:50:47.658Z,101333.69
2023-03-11T17:53:14.014Z,101363.72
2023-03-11T17:55:40.792Z,101359.66
2023-03-11T17:58:07.994Z,101355.41
2023-03-11T18:00:34.401Z,101369.25
2023-03-11T18:03:00.827Z,101340.81
2023-03-11T18:05:27.265Z,101363.63
2023-03-11T18:07:53.640Z,101360.22
2023-03-11T18:10:20.379Z,101355.88
2023-03-11T18:12:47.466Z,101354.19
2023-03-11T18:15:18.893Z,101360.22
2023-03-11T18:17:46.641Z,101367.13
2023-03-11T18:20:14.546Z,101372.84
2023-03-11T18:22:46.128Z,101365.00
2023-03-11T18:25:13.811Z,101371.25
2023-03-11T18:27:40.245Z,101369.66
2023-03-11T18:30:08.118Z,101371.13
2023-03-11T18:32:34.518Z,101369.53
2023-03-11T18:35:00.906Z,101378.34
2023-03-11T18:37:27.300Z,101377.91
2023-03-11T18:39:53.660Z,101369.84
2023-03-11T18:42:20.044Z,101373.66
2023-03-11T18:44:46.655Z,101380.41
2023-03-11T18:47:13.013Z,101382.50
2023-03-11T18:49:40.406Z,101370.44
2023-03-11T18:52:06.851Z,101375.31
2023-03-11T18:54:33.258Z,101382.66
2023-03-11T18:56:59.619Z,101392.28
2023-03-11T18:59:27.541Z,101390.03
2023-03-11T19:01:54.086Z,101383.56
2023-03-11T19:04:20.613Z,101357.03
2023-03-11T19:06:47.457Z,101387.88
2023-03-11T19:09:14.083Z,101375.72
2023-03-11T19:11:40.456Z,101387.16
2023-03-11T19:14:06.829Z,101359.94
2023-03-11T19:16:33.290Z,101392.41
2023-03-11T19:19:00.316Z,101394.06
2023-03-11T19:21:27.545Z,101372.00
2023-03-11T19:23:55.328Z,101388.09
2023-03-11T19:26:33.838Z,101399.09
2023-03-11T19:29:08.694Z,101397.00
2023-03-11T19:31:35.223Z,101400.16
2023-03-11T19:34:01.856Z,101401.41
2023-03-11T19:36:28.339Z,101398.75
2023-03-11T19:38:54.678Z,101394.00
2023-03-11T19:41:22.963Z,101401.84
2023-03-11T19:43:52.437Z,101402.69
2023-03-11T19:46:21.550Z,101394.19
2023-03-11T19:48:48.079Z,101401.88
2023-03-11T19:51:15.006Z,101399.88
2023-03-11T19:53:41.737Z,101402.44
2023-03-11T19:56:09.474Z,101405.38
2023-03-11T19:58:36.606Z,101408.56
2023-03-11T20:01:03.420Z,101411.97
2023-03-11T20:03:30.015Z,101410.03
2023-03-11T20:05:57.925Z,101403.13
2023-03-11T20:08:26.016Z,101412.94
2023-03-11T20:10:53.481Z,101416.72
2023-03-11T20:13:22.158Z,101416.72
2023-03-11T20:15:48.842Z,101389.56
2023-03-11T20:18:15.606Z,101400.66
2023-03-11T20:20:43.251Z,101417.44
2023-03-11T20:23:10.068Z,101413.28
2023-03-11T20:25:40.986Z,101407.25
2023-03-11T20:28:07.569Z,101411.44
2023-03-11T20:30:34.241Z,101414.09
2023-03-11T20:33:00.783Z,101412.22
2023-03-11T20:35:27.454Z,101428.06
2023-03-11T20:37:53.933Z,101430.41
2023-03-11T20:40:22.011Z,101426.59
2023-03-11T20:42:48.505Z,101419.59
2023-03-11T20:45:17.459Z,101432.03
2023-03-11T20:47:44.379Z,101423.09
2023-03-11T20:50:12.477Z,101415.44
2023-03-11T20:52:39.582Z,101396.78
2023-03-11T20:55:08.319Z,101412.44
2023-03-11T20:57:36.865Z,101426.75
2023-03-11T21:00:08.177Z,101417.03
2023-03-11T21:02:34.917Z,101404.09
2023-03-11T21:05:01.663Z,101419.03
2023-03-11T21:07:28.114Z,101420.06
2023-03-11T21:09:54.977Z,101415.44
2023-03-11T21:12:21.877Z,101418.66
2023-03-11T21:14:48.471Z,101398.81
2023-03-11T21:17:15.381Z,101420.72
2023-03-11T21:19:42.052Z,101412.25
2023-03-11T21:22:08.469Z,101424.97
2023-03-11T21:24:34.887Z,101409.97
2023-03-11T21:27:01.699Z,101427.41
2023-03-11T21:29:30.605Z,101426.56
2023-03-11T21:31:58.540Z,101429.41
2023-03-11T21:34:25.172Z,101411.97
2023-03-11T21:36:51.552Z,101426.94
2023-03-11T21:39:18.072Z,101427.16
2023-03-11T21:41:44.552Z,101429.69
2023-03-11T21:44:11.054Z,101427.31
2023-03-11T21:46:37.594Z,101414.97
2023-03-11T21:49:04.115Z,101403.91
2023-03-11T21:51:30.599Z,101413.91
2023-03-11T21:53:57.322Z,101426.56
2023-03-11T21:56:23.848Z,101402.28
2023-03-11T21:58:50.312Z,101414.09
2023-03-11T22:01:16.923Z,101421.44
2023-03-11T22:03:43.800Z,101424.84
2023-03-11T22:06:11.911Z,101378.91
2023-03-11T22:08:38.911Z,101401.44
2023-03-11T22:11:13.874Z,101408.06
2023-03-11T22:13:40.374Z,101401.84
2023-03-11T22:16:07.368Z,101377.41
2023-03-11T22:18:34.246Z,101404.56
2023-03-11T22:21:01.034Z,101418.25
2023-03-11T22:23:27.855Z,101379.66
2023-03-11T22:25:54.460Z,101411.34
2023-03-11T22:28:20.834Z,101416.56
2023-03-11T22:30:47.199Z,101411.19
2023-03-11T22:33:13.792Z,101416.28
2023-03-11T22:35:40.254Z,101417.69
2023-03-11T22:38:07.001Z,101422.22
2023-03-11T22:40:35.067Z,101418.72
2023-03-11T22:43:01.632Z,101411.44
2023-03-11T22:45:27.992Z,101422.97
2023-03-11T22:47:54.836Z,101418.19
2023-03-11T22:50:21.729Z,101415.53
2023-03-11T22:52:48.229Z,101419.00
2023-03-11T22:55:14.702Z,101417.31
2023-03-11T22:57:41.059Z,101424.88
2023-03-11T23:00:17.170Z,101426.84
2023-03-11T23:02:48.473Z,101425.72
2023-03-11T23:05:15.960Z,101418.47
2023-03-11T23:07:42.855Z,101416.19
2023-03-11T23:10:11.845Z,101418.38
2023-03-11T23:12:38.687Z,101407.50
2023-03-11T23:15:17.607Z,101414.03
2023-03-11T23:17:44.314Z,101402.06
2023-03-11T23:20:14.526Z,101411.78
2023-03-11T23:22:42.169Z,101417.31
2023-03-11T23:25:12.495Z,101409.09
2023-03-11T23:27:38.949Z,101415.63
2023-03-11T23:30:06.162Z,101396.84
2023-03-11T23:32:32.610Z,101421.47
2023-03-11T23:34:59.088Z,101425.91
2023-03-11T23:37:25.475Z,101416.75
2023-03-11T23:39:51.859Z,101413.94
2023-03-11T23:42:25.335Z,101419.94
2023-03-11T23:44:52.413Z,101401.75
2023-03-11T23:47:18.920Z,101417.78
2023-03-11T23:49:45.289Z,101408.84
2023-03-11T23:52:11.740Z,101415.34
2023-03-11T23:54:38.134Z,101409.41
2023-03-11T23:57:04.527Z,101406.09
2023-03-11T23:59:31.004Z,101409.00
